Latest Coastal Weather Observations for Proserpine

IDQ60701

Issued at 8:12 pm EST Wednesday 27 May 2015 (issued every 10 minutes, with the page automatically refreshed every 10 minutes)

About coastal observations | Map of coastal stations | Coastal observations for QLD | Marine services | Other Formats
Station Details ID: 033247 Name: PROSERPINE AIRPORT Lat: -20.49 Lon: 148.56 Height: 19.7 m
Data from the previous 72 hours. | See also: Recent months at Proserpine
Date/Time
EST
Temp

°C
Wind Pressure Rain
since 9am
mm
Weather Cloud Vis
km
Sea
Height
m
Swell
Dir
 
Speed
knots
Gust
knots
hPa Trend Height
m
Period
s
Dir
27/08:00pm 19.8 SE 4 5 1020.7 - 0.0 - Partly cloudy 10 - - - -
27/07:30pm 19.8 SSE 5 7 1020.4 - 0.0 - - 10 - - - -
27/07:00pm 20.3 SE 5 7 1020.0 - 0.0 - - 10 - - - -
27/06:30pm 21.3 ESE 10 13 1019.7 - 0.0 - Partly cloudy 10 - - - -
27/06:00pm 21.4 ESE 11 14 1019.4 - 0.0 - - 10 - - - -
27/05:30pm 21.5 ESE 9 15 1019.3 - 0.0 - - 10 - - - -
27/05:00pm 22.5 ESE 11 16 1019.1 - 0.0 - - 10 - - - -
27/04:30pm 23.3 ESE 13 19 1018.7 - 0.0 - - 10 - - - -
27/04:00pm 23.9 ESE 14 20 1018.5 - 0.0 - - 10 - - - -
27/03:30pm 24.8 ESE 15 21 1018.4 - 0.0 - - 10 - - - -
27/03:00pm 25.0 ESE 14 21 1018.4 - 0.0 - - 10 - - - -
27/02:30pm 24.7 ESE 15 23 1018.5 - 0.0 - - 10 - - - -
27/02:00pm 26.0 ESE 13 19 1018.6 - 0.0 - - 10 - - - -
27/01:30pm 25.6 ESE 14 19 1018.7 - 0.0 - - 10 - - - -
27/01:00pm 25.5 ESE 14 20 1019.0 - 0.0 - - 10 - - - -
27/12:30pm 25.3 ESE 13 21 1019.5 - 0.0 - - 10 - - - -
27/12:00pm 25.7 ESE 14 20 1020.1 - 0.0 - - 10 - - - -
27/11:30am 25.5 ESE 14 18 1020.7 - 0.0 - - 10 - - - -
27/11:00am 25.3 ESE 13 19 1021.1 - 0.0 - Partly cloudy 10 - - - -
27/10:30am 25.1 ESE 14 18 1021.4 - 0.0 - - 10 - - - -
27/10:00am 24.8 ESE 14 19 1021.8 - 0.0 - Partly cloudy 10 - - - -
27/09:30am 24.1 SE 13 18 1021.7 - 0.0 - Partly cloudy 10 - - - -
27/09:00am 23.3 SSE 9 12 1021.6 - 0.2 - Mostly clear 10 - - - -
27/08:30am 21.8 SSE 8 11 1021.5 - 0.2 - - 10 - - - -
27/08:00am 20.8 SSE 8 11 1021.3 - 0.2 - - 10 - - - -
27/07:30am 19.6 SSE 6 8 1021.2 - 0.2 - - 10 - - - -
27/07:00am 18.6 S 6 9 1020.9 - 0.2 - - 10 - - - -
27/06:30am 18.8 SSE 7 8 1020.7 - 0.2 - Partly cloudy 10 - - - -
27/06:00am 19.1 SSE 8 12 1020.4 - 0.2 - Mostly cloudy 10 - - - -
27/05:30am 19.2 SSE 8 11 1020.3 - 0.2 - Partly cloudy 10 - - - -
27/05:00am 19.2 SSE 8 11 1019.8 - 0.2 - Partly cloudy 10 - - - -
27/04:30am 19.2 SSE 10 13 1019.6 - 0.2 - Partly cloudy 10 - - - -
27/04:00am 19.0 SSE 9 14 1019.7 - 0.2 - Partly cloudy 10 - - - -
27/03:30am 18.9 SSE 9 11 1019.7 - 0.2 - Partly cloudy 10 - - - -
27/03:00am 19.1 SSE 9 12 1019.7 - 0.2 - Partly cloudy 10 - - - -
27/02:30am 19.1 SSE 9 13 1019.9 - 0.2 - Partly cloudy 10 - - - -
27/02:00am 19.0 S 7 11 1020.1 - 0.2 - Partly cloudy 10 - - - -
27/01:30am 18.6 S 8 10 1020.4 - 0.2 - - 10 - - - -
27/01:00am 18.9 S 8 11 1020.7 - 0.2 - Partly cloudy 10 - - - -
27/12:30am 19.1 SSE 10 13 1020.9 - 0.2 - Partly cloudy 9 - - - -
27/12:00am 19.1 SSE 8 11 1021.0 - 0.2 - Partly cloudy 10 - - - -
 
Date/Time
EST
Temp

°C
Wind Pressure Rain
since 9am
mm
Weather Cloud Vis
km
Sea
Height
m
Swell
Dir
 
Speed
knots
Gust
knots
hPa Trend Height
m
Period
s
Dir
26/11:30pm 19.0 S 6 8 1021.4 - 0.2 - Partly cloudy 10 - - - -
26/11:00pm 18.8 S 5 7 1021.8 - 0.2 - Partly cloudy 10 - - - -
26/10:30pm 18.9 SSE 9 11 1021.9 - 0.2 - Partly cloudy 10 - - - -
26/10:00pm 18.6 SSE 7 9 1022.0 - 0.2 - Partly cloudy 10 - - - -
26/09:30pm 18.9 SSE 6 8 1022.0 - 0.2 - Partly cloudy 10 - - - -
26/09:00pm 19.3 SSE 6 9 1022.1 - 0.2 Recent precip. Mostly cloudy 10 - - - -
26/08:30pm 19.6 SSE 9 13 1022.4 - 0.2 - Partly cloudy 10 - - - -
26/08:00pm 20.1 SSE 7 12 1022.3 - 0.0 - Partly cloudy 10 - - - -
26/07:30pm 20.3 SE 13 20 1022.2 - 0.0 - Partly cloudy 10 - - - -
26/07:00pm 21.5 SE 8 13 1021.8 - 0.0 - Partly cloudy 10 - - - -
26/06:30pm 20.6 ESE 6 7 1021.4 - 0.0 - Partly cloudy 10 - - - -
26/06:00pm 20.8 ESE 6 8 1021.0 - 0.0 - - 10 - - - -
26/05:30pm 21.5 ESE 9 13 1020.8 - 0.0 - - 10 - - - -
26/05:00pm 22.4 ESE 10 15 1020.5 - 0.0 - - 10 - - - -
26/04:30pm 23.4 ESE 13 18 1020.4 - 0.0 - - 10 - - - -
26/04:00pm 23.3 ESE 15 19 1020.3 - 0.0 - - 10 - - - -
26/03:30pm 24.1 ESE 13 18 1020.1 - 0.0 - - 10 - - - -
26/03:00pm 24.9 E 11 16 1020.3 - 0.0 - - 10 - - - -
26/02:30pm 24.6 ESE 15 20 1020.6 - 0.0 - - 10 - - - -
26/02:00pm 25.2 ESE 15 23 1020.9 - 0.0 - - 10 - - - -
26/01:30pm 25.1 ESE 15 23 1021.1 - 0.0 - - 10 - - - -
26/01:00pm 24.3 SE 15 21 1021.6 - 0.0 - - 10 - - - -
26/12:30pm 24.6 ESE 16 21 1022.2 - 0.0 - - 10 - - - -
26/12:00pm 24.5 ESE 15 23 1022.8 - 0.0 - Mostly clear 10 - - - -
26/11:30am 25.1 ESE 14 19 1022.8 - 0.0 - Partly cloudy 10 - - - -
26/11:00am 25.2 ESE 16 21 1023.1 - 0.0 - Partly cloudy 10 - - - -
26/10:30am 24.1 ESE 13 19 1023.5 - 0.0 - Partly cloudy 10 - - - -
26/10:00am 23.6 ESE 15 21 1023.8 - 0.0 - Cloudy 10 - - - -
26/09:30am 23.1 ESE 13 19 1023.9 - 0.0 - Partly cloudy 10 - - - -
26/09:00am 21.7 SSE 10 15 1024.1 - 2.8 - Mostly clear 10 - - - -
26/08:30am 21.3 SSE 11 16 1023.9 - 2.8 - Partly cloudy 10 - - - -
26/08:00am 20.4 SSE 8 12 1023.8 - 2.8 - Partly cloudy 10 - - - -
26/07:30am 19.8 SSE 6 9 1023.8 - 2.8 - Partly cloudy 10 - - - -
26/07:19am 19.7 SSE 6 8 1023.7 - 2.8 - Partly cloudy 10 - - - -
26/07:00am 19.2 SSE 5 6 1023.5 - 2.8 - Partly cloudy 10 - - - -
26/06:30am 18.9 S 9 12 1023.2 - 2.6 - Partly cloudy 10 - - - -
26/06:29am 18.9 S 9 11 1023.2 - 2.6 - Partly cloudy 10 - - - -
26/06:00am 18.9 SSE 7 10 1023.0 - 2.6 Recent precip. Cloudy 10 - - - -
26/05:59am 18.8 SSE 7 10 1023.0 - 2.6 - Partly cloudy 10 - - - -
26/05:30am 18.6 S 3 4 1022.8 - 2.6 - Partly cloudy 10 - - - -
26/05:19am 18.6 S 3 4 1022.9 - 2.6 - Partly cloudy 10 - - - -
26/05:08am 18.6 SSE 3 4 1022.8 - 2.4 - Partly cloudy 6 - - - -
26/05:00am 18.6 SSE 4 6 1022.8 - 2.4 - Partly cloudy 10 - - - -
26/04:53am 18.6 S 5 7 1022.7 - 2.2 - Partly cloudy 10 - - - -
26/04:30am 18.5 S 5 6 1022.9 - 1.8 - Partly cloudy 6 - - - -
26/04:19am 18.5 S 7 9 1022.9 - 1.6 - Partly cloudy 6 - - - -
26/04:00am 18.5 S 8 11 1022.8 - 1.4 - Partly cloudy 10 - - - -
26/03:31am 18.7 S 7 10 1023.0 - 0.8 - Partly cloudy 6 - - - -
26/03:30am 18.7 S 7 10 1022.9 - 0.6 - Partly cloudy 8 - - - -
26/03:27am 18.6 S 7 10 1022.9 - 0.6 - Partly cloudy 9 - - - -
26/03:14am 18.7 S 8 11 1022.8 - 0.6 - Partly cloudy 6 - - - -
26/03:12am 18.7 S 7 11 1022.8 - 0.6 - Partly cloudy 7 - - - -
26/03:00am 18.7 SSE 5 7 1023.0 - 0.4 Rain Cloudy 6 - - - -
26/02:53am 18.8 SSE 6 9 1022.9 - 0.0 - Partly cloudy 7 - - - -
26/02:52am 18.8 SSE 6 9 1022.9 - 0.0 - Partly cloudy 6 - - - -
26/02:30am 18.8 S 9 14 1022.7 - 0.0 - Partly cloudy 10 - - - -
26/02:00am 19.0 S 9 13 1023.0 - 0.0 - - 10 - - - -
26/01:30am 19.1 S 9 13 1023.0 - 0.0 - Partly cloudy 10 - - - -
26/01:00am 18.9 S 7 9 1023.1 - 0.0 - Partly cloudy 10 - - - -
26/12:30am 19.1 S 7 9 1023.3 - 0.0 - Partly cloudy 10 - - - -
26/12:00am 19.4 S 8 12 1023.4 - 0.0 - Partly cloudy 10 - - - -
 
Date/Time
EST
Temp

°C
Wind Pressure Rain
since 9am
mm
Weather Cloud Vis
km
Sea
Height
m
Swell
Dir
 
Speed
knots
Gust
knots
hPa Trend Height
m
Period
s
Dir
25/11:30pm 19.7 S 7 10 1023.7 - 0.0 - Partly cloudy 10 - - - -
25/11:00pm 19.6 S 8 11 1023.9 - 0.0 - - 10 - - - -
25/10:30pm 20.0 S 10 13 1024.1 - 0.0 - Partly cloudy 10 - - - -
25/10:00pm 19.7 S 8 11 1024.1 - 0.0 - Partly cloudy 10 - - - -
25/09:30pm 19.6 S 9 13 1024.2 - 0.0 - Partly cloudy 10 - - - -
25/09:00pm 19.8 S 8 11 1024.0 - 0.0 - - 10 - - - -
25/08:30pm 20.3 SSE 9 13 1023.8 - 0.0 - Partly cloudy 10 - - - -
25/08:00pm 21.0 SSE 7 10 1023.5 - 0.0 - Partly cloudy 10 - - - -
25/07:30pm 20.6 SE 9 14 1023.2 - 0.0 - Partly cloudy 10 - - - -
25/07:00pm 20.5 SSE 6 9 1023.1 - 0.0 - Partly cloudy 10 - - - -
25/06:30pm 20.9 SE 8 11 1022.8 - 0.0 - Partly cloudy 10 - - - -
25/06:00pm 21.6 SE 9 13 1022.7 - 0.0 - Mostly clear 10 - - - -
25/05:30pm 21.9 SE 11 15 1022.4 - 0.0 - - 10 - - - -
25/05:00pm 22.4 ESE 11 16 1022.3 - 0.0 - - 10 - - - -
25/04:30pm 23.1 ESE 13 19 1022.3 - 0.0 - - 10 - - - -
25/04:00pm 23.3 ESE 13 17 1022.4 - 0.0 - Partly cloudy 10 - - - -
25/03:30pm 23.5 ESE 15 22 1022.4 - 0.0 - Partly cloudy 10 - - - -
25/03:00pm 23.4 ESE 14 20 1022.4 - 0.0 - Mostly clear 10 - - - -
25/02:30pm 25.5 ESE 15 21 1022.5 - 0.0 - - 10 - - - -
25/02:00pm 25.3 ESE 14 20 1022.4 - 0.0 - - 10 - - - -
25/01:30pm 25.2 ESE 15 20 1022.6 - 0.0 - - 10 - - - -
25/01:00pm 25.3 ESE 15 21 1022.9 - 0.0 - - 10 - - - -
25/12:30pm 25.1 SE 15 18 1023.3 - 0.0 - - 10 - - - -
25/12:00pm 25.5 SE 16 22 1023.5 - 0.0 - - 10 - - - -
25/11:30am 25.0 ESE 14 22 1023.8 - 0.0 - - 10 - - - -
25/11:00am 25.1 SE 15 20 1024.1 - 0.0 - Partly cloudy 10 - - - -
25/10:30am 24.2 SE 15 21 1024.8 - 0.0 - Partly cloudy 10 - - - -
25/10:00am 22.9 ESE 13 16 1025.0 - 0.0 - Partly cloudy 10 - - - -
25/09:30am 21.8 SSE 10 14 1025.0 - 0.0 - Partly cloudy 10 - - - -
25/09:00am 21.5 SSE 11 14 1025.3 - 4.8 Recent precip. Partly cloudy 10 - - - -
25/08:30am 20.3 SSE 8 12 1024.9 - 4.8 - Partly cloudy 10 - - - -
25/08:24am 20.5 SSE 8 12 1024.8 - 4.8 - Partly cloudy 10 - - - -
25/08:07am 19.5 SSE 8 11 1024.4 - 4.8 - Partly cloudy 8 - - - -
25/08:00am 19.3 SSE 8 12 1024.4 - 4.6 - Partly cloudy 10 - - - -
25/07:30am 19.2 SSE 6 9 1024.1 - 4.6 - - 10 - - - -
25/07:00am 18.8 SSE 7 9 1023.9 - 4.6 - Partly cloudy 10 - - - -
25/06:53am 18.7 SSE 6 9 1023.8 - 4.6 - Partly cloudy 10 - - - -
25/06:43am 18.7 SSE 9 13 1023.6 - 4.6 - Partly cloudy 10 - - - -
25/06:30am 18.7 SSE 11 15 1023.7 - 4.6 - Partly cloudy 10 - - - -
25/06:00am 18.6 SSE 11 15 1023.3 - 4.6 - - 10 - - - -
25/05:30am 18.5 SSE 9 12 1022.8 - 4.6 - Partly cloudy 10 - - - -
25/05:00am 18.9 SSE 9 13 1022.7 - 4.6 - - 10 - - - -
25/04:30am 18.4 SSE 7 11 1022.6 - 4.6 - - 10 - - - -
25/04:00am 18.7 SSE 8 13 1022.9 - 4.6 - - 10 - - - -
25/03:30am 18.8 SSE 8 12 1022.9 - 4.6 - Partly cloudy 10 - - - -
25/03:00am 18.7 SSE 8 12 1022.9 - 4.6 - Partly cloudy 10 - - - -
25/02:30am 18.9 SSE 8 10 1023.0 - 4.6 - Partly cloudy 10 - - - -
25/02:00am 19.0 SSE 8 10 1023.1 - 4.6 - Partly cloudy 10 - - - -
25/01:30am 19.3 SSE 9 12 1023.5 - 4.6 - Partly cloudy 10 - - - -
25/01:00am 19.1 SSE 10 14 1023.5 - 4.6 - Partly cloudy 10 - - - -
25/12:30am 19.5 SSE 11 17 1023.9 - 4.6 - Partly cloudy 10 - - - -
25/12:00am 19.3 SSE 10 14 1024.0 - 4.6 - Mostly clear 10 - - - -
 
Date/Time
EST
Temp

°C
Wind Pressure Rain
since 9am
mm
Weather Cloud Vis
km
Sea
Height
m
Swell
Dir
 
Speed
knots
Gust
knots
hPa Trend Height
m
Period
s
Dir
24/11:30pm 19.5 SSE 11 15 1024.0 - 4.6 - Partly cloudy 10 - - - -
24/11:00pm 19.4 SSE 11 14 1023.7 - 4.6 - - 10 - - - -
24/10:30pm 19.4 SSE 10 13 1023.7 - 4.6 - - 10 - - - -
24/10:00pm 19.6 SSE 11 14 1023.4 - 4.6 - Partly cloudy 10 - - - -
24/09:30pm 19.6 SSE 10 13 1023.5 - 4.6 - - 10 - - - -
24/09:19pm 19.7 SSE 9 15 1023.5 - 4.6 - Partly cloudy 10 - - - -
24/09:00pm 19.7 SSE 6 8 1023.6 - 4.6 Rain Mostly cloudy 10 - - - -
24/08:54pm 19.7 SE 5 8 1023.7 - 4.4 - Partly cloudy 10 - - - -
24/08:30pm 19.7 SSE 4 7 1023.6 - 3.8 - Partly cloudy 3 - - - -
24/08:21pm 19.8 SSE 6 9 1023.6 - 2.8 - Partly cloudy 5 - - - -
24/08:17pm 19.8 SSE 8 12 1023.5 - 2.2 - Partly cloudy 10 - - - -

Other Formats:

Comma delimited format used in spreadsheet applications
http://www.bom.gov.au/fwo/IDQ60701/IDQ60701.94365.axf

JavaScript Object Notation format (JSON) in row-major order
http://www.bom.gov.au/fwo/IDQ60701/IDQ60701.94365.json